sensor_id;sensor_type;location;lat;lon;timestamp;temperature;humidity
59307;DHT22;47983;53.016;-2.260;2023-09-18T00:01:09;17.30;99.90
59307;DHT22;47983;53.016;-2.260;2023-09-18T00:03:37;17.30;99.90
59307;DHT22;47983;53.016;-2.260;2023-09-18T00:06:05;17.30;99.90
59307;DHT22;47983;53.016;-2.260;2023-09-18T00:08:33;17.30;99.90
59307;DHT22;47983;53.016;-2.260;2023-09-18T00:11:00;17.30;99.90
59307;DHT22;47983;53.016;-2.260;2023-09-18T00:13:28;17.30;99.90
59307;DHT22;47983;53.016;-2.260;2023-09-18T00:15:56;17.30;99.90
59307;DHT22;47983;53.016;-2.260;2023-09-18T00:18:27;17.30;99.90
59307;DHT22;47983;53.016;-2.260;2023-09-18T00:20:54;17.30;99.90
59307;DHT22;47983;53.016;-2.260;2023-09-18T00:23:22;17.30;99.90
59307;DHT22;47983;53.016;-2.260;2023-09-18T00:25:50;17.30;99.90
59307;DHT22;47983;53.016;-2.260;2023-09-18T00:28:18;17.30;99.90
59307;DHT22;47983;53.016;-2.260;2023-09-18T00:30:50;17.30;99.90
59307;DHT22;47983;53.016;-2.260;2023-09-18T00:33:18;17.30;99.90
59307;DHT22;47983;53.016;-2.260;2023-09-18T00:35:48;17.30;99.90
59307;DHT22;47983;53.016;-2.260;2023-09-18T00:38:16;17.30;99.90
59307;DHT22;47983;53.016;-2.260;2023-09-18T00:40:44;17.30;99.90
59307;DHT22;47983;53.016;-2.260;2023-09-18T00:43:12;17.30;99.90
59307;DHT22;47983;53.016;-2.260;2023-09-18T00:45:44;17.30;99.90
59307;DHT22;47983;53.016;-2.260;2023-09-18T00:48:12;17.30;99.90
59307;DHT22;47983;53.016;-2.260;2023-09-18T00:50:45;17.30;99.90
59307;DHT22;47983;53.016;-2.260;2023-09-18T00:53:17;17.30;99.90
59307;DHT22;47983;53.016;-2.260;2023-09-18T00:55:46;17.30;99.90
59307;DHT22;47983;53.016;-2.260;2023-09-18T00:58:15;17.30;99.90
59307;DHT22;47983;53.016;-2.260;2023-09-18T01:00:44;17.30;99.90
59307;DHT22;47983;53.016;-2.260;2023-09-18T01:03:12;17.30;99.90
59307;DHT22;47983;53.016;-2.260;2023-09-18T01:05:40;17.30;99.90
59307;DHT22;47983;53.016;-2.260;2023-09-18T01:08:08;17.30;99.90
59307;DHT22;47983;53.016;-2.260;2023-09-18T01:11:19;17.30;99.90
59307;DHT22;47983;53.016;-2.260;2023-09-18T01:13:55;17.30;99.90
59307;DHT22;47983;53.016;-2.260;2023-09-18T01:17:01;17.30;99.90
59307;DHT22;47983;53.016;-2.260;2023-09-18T01:19:39;17.30;99.90
59307;DHT22;47983;53.016;-2.260;2023-09-18T01:22:09;17.30;99.90
59307;DHT22;47983;53.016;-2.260;2023-09-18T01:24:38;17.20;99.90
59307;DHT22;47983;53.016;-2.260;2023-09-18T01:27:10;17.20;99.90
59307;DHT22;47983;53.016;-2.260;2023-09-18T01:29:38;17.20;99.90
59307;DHT22;47983;53.016;-2.260;2023-09-18T01:32:06;17.20;99.90
59307;DHT22;47983;53.016;-2.260;2023-09-18T01:34:38;17.20;99.90
59307;DHT22;47983;53.016;-2.260;2023-09-18T01:37:10;17.20;99.90
59307;DHT22;47983;53.016;-2.260;2023-09-18T01:39:39;17.20;99.90
59307;DHT22;47983;53.016;-2.260;2023-09-18T01:42:08;17.10;99.90
59307;DHT22;47983;53.016;-2.260;2023-09-18T01:44:37;17.20;99.90
59307;DHT22;47983;53.016;-2.260;2023-09-18T01:47:18;17.10;99.90
59307;DHT22;47983;53.016;-2.260;2023-09-18T01:49:47;17.10;99.90
59307;DHT22;47983;53.016;-2.260;2023-09-18T01:52:15;17.10;99.90
59307;DHT22;47983;53.016;-2.260;2023-09-18T01:54:43;17.10;99.90
59307;DHT22;47983;53.016;-2.260;2023-09-18T01:57:12;17.10;99.90
59307;DHT22;47983;53.016;-2.260;2023-09-18T01:59:40;17.10;99.90
59307;DHT22;47983;53.016;-2.260;2023-09-18T02:02:09;17.10;99.90
59307;DHT22;47983;53.016;-2.260;2023-09-18T02:04:47;17.10;99.90
59307;DHT22;47983;53.016;-2.260;2023-09-18T02:07:34;17.10;99.90
59307;DHT22;47983;53.016;-2.260;2023-09-18T02:10:03;17.10;99.90
59307;DHT22;47983;53.016;-2.260;2023-09-18T02:12:31;17.10;99.90
59307;DHT22;47983;53.016;-2.260;2023-09-18T02:15:02;17.10;99.90
59307;DHT22;47983;53.016;-2.260;2023-09-18T02:17:34;17.10;99.90
59307;DHT22;47983;53.016;-2.260;2023-09-18T02:20:02;17.10;99.90
59307;DHT22;47983;53.016;-2.260;2023-09-18T02:22:32;17.10;99.90
59307;DHT22;47983;53.016;-2.260;2023-09-18T02:25:00;17.10;99.90
59307;DHT22;47983;53.016;-2.260;2023-09-18T02:27:28;17.10;99.90
59307;DHT22;47983;53.016;-2.260;2023-09-18T02:29:55;17.10;99.90
59307;DHT22;47983;53.016;-2.260;2023-09-18T02:32:23;17.10;99.90
59307;DHT22;47983;53.016;-2.260;2023-09-18T02:34:51;17.10;99.90
59307;DHT22;47983;53.016;-2.260;2023-09-18T02:37:19;17.10;99.90
59307;DHT22;47983;53.016;-2.260;2023-09-18T02:39:46;17.10;99.90
59307;DHT22;47983;53.016;-2.260;2023-09-18T02:42:14;17.10;99.90
59307;DHT22;47983;53.016;-2.260;2023-09-18T02:44:42;17.10;99.90
59307;DHT22;47983;53.016;-2.260;2023-09-18T02:47:09;17.10;99.90
59307;DHT22;47983;53.016;-2.260;2023-09-18T02:49:37;17.10;99.90
59307;DHT22;47983;53.016;-2.260;2023-09-18T02:52:05;17.10;99.90
59307;DHT22;47983;53.016;-2.260;2023-09-18T02:54:33;17.10;99.90
59307;DHT22;47983;53.016;-2.260;2023-09-18T02:57:01;17.10;99.90
59307;DHT22;47983;53.016;-2.260;2023-09-18T02:59:28;17.00;99.90
59307;DHT22;47983;53.016;-2.260;2023-09-18T03:01:56;17.00;99.90
59307;DHT22;47983;53.016;-2.260;2023-09-18T03:04:24;17.00;99.90
59307;DHT22;47983;53.016;-2.260;2023-09-18T03:06:51;17.00;99.90
59307;DHT22;47983;53.016;-2.260;2023-09-18T03:09:20;17.00;99.90
59307;DHT22;47983;53.016;-2.260;2023-09-18T03:11:49;16.90;99.90
59307;DHT22;47983;53.016;-2.260;2023-09-18T03:14:17;16.90;99.90
59307;DHT22;47983;53.016;-2.260;2023-09-18T03:16:44;16.90;99.90
59307;DHT22;47983;53.016;-2.260;2023-09-18T03:19:13;16.90;99.90
59307;DHT22;47983;53.016;-2.260;2023-09-18T03:21:42;16.90;99.90
59307;DHT22;47983;53.016;-2.260;2023-09-18T03:24:09;16.80;99.90
59307;DHT22;47983;53.016;-2.260;2023-09-18T03:26:37;16.80;99.90
59307;DHT22;47983;53.016;-2.260;2023-09-18T03:29:05;16.80;99.90
59307;DHT22;47983;53.016;-2.260;2023-09-18T03:31:33;16.80;99.90
59307;DHT22;47983;53.016;-2.260;2023-09-18T03:34:00;16.80;99.90
59307;DHT22;47983;53.016;-2.260;2023-09-18T03:36:28;16.80;99.90
59307;DHT22;47983;53.016;-2.260;2023-09-18T03:38:56;16.80;99.90
59307;DHT22;47983;53.016;-2.260;2023-09-18T03:41:25;16.80;99.90
59307;DHT22;47983;53.016;-2.260;2023-09-18T03:43:53;16.80;99.90
59307;DHT22;47983;53.016;-2.260;2023-09-18T03:46:20;16.70;99.90
59307;DHT22;47983;53.016;-2.260;2023-09-18T03:48:49;16.70;99.90
59307;DHT22;47983;53.016;-2.260;2023-09-18T03:51:17;16.70;99.90
59307;DHT22;47983;53.016;-2.260;2023-09-18T03:53:46;16.60;99.90
59307;DHT22;47983;53.016;-2.260;2023-09-18T03:56:15;16.60;99.90
59307;DHT22;47983;53.016;-2.260;2023-09-18T03:58:43;16.50;99.90
59307;DHT22;47983;53.016;-2.260;2023-09-18T04:01:14;16.50;99.90
59307;DHT22;47983;53.016;-2.260;2023-09-18T04:03:41;16.50;99.90
59307;DHT22;47983;53.016;-2.260;2023-09-18T04:06:09;16.50;99.90
59307;DHT22;47983;53.016;-2.260;2023-09-18T04:08:37;16.50;99.90
59307;DHT22;47983;53.016;-2.260;2023-09-18T04:11:04;16.40;99.90
59307;DHT22;47983;53.016;-2.260;2023-09-18T04:13:32;16.50;99.90
59307;DHT22;47983;53.016;-2.260;2023-09-18T04:16:01;16.40;99.90
59307;DHT22;47983;53.016;-2.260;2023-09-18T04:18:31;16.40;99.90
59307;DHT22;47983;53.016;-2.260;2023-09-18T04:21:00;16.40;99.90
59307;DHT22;47983;53.016;-2.260;2023-09-18T04:23:28;16.30;99.90
59307;DHT22;47983;53.016;-2.260;2023-09-18T04:25:59;16.30;99.90
59307;DHT22;47983;53.016;-2.260;2023-09-18T04:28:27;16.30;99.90
59307;DHT22;47983;53.016;-2.260;2023-09-18T04:30:55;16.30;99.90
59307;DHT22;47983;53.016;-2.260;2023-09-18T04:33:24;16.20;99.90
59307;DHT22;47983;53.016;-2.260;2023-09-18T04:35:53;16.20;99.90
59307;DHT22;47983;53.016;-2.260;2023-09-18T04:38:21;16.20;99.90
59307;DHT22;47983;53.016;-2.260;2023-09-18T04:40:49;16.20;99.90
59307;DHT22;47983;53.016;-2.260;2023-09-18T04:43:17;16.10;99.90
59307;DHT22;47983;53.016;-2.260;2023-09-18T04:45:45;16.10;99.90
59307;DHT22;47983;53.016;-2.260;2023-09-18T04:48:14;16.10;99.90
59307;DHT22;47983;53.016;-2.260;2023-09-18T04:50:45;16.00;99.90
59307;DHT22;47983;53.016;-2.260;2023-09-18T04:53:13;16.00;99.90
59307;DHT22;47983;53.016;-2.260;2023-09-18T04:55:42;16.00;99.90
59307;DHT22;47983;53.016;-2.260;2023-09-18T04:58:10;16.00;99.90
59307;DHT22;47983;53.016;-2.260;2023-09-18T05:00:37;15.90;99.90
59307;DHT22;47983;53.016;-2.260;2023-09-18T05:03:05;15.90;99.90
59307;DHT22;47983;53.016;-2.260;2023-09-18T05:05:34;15.90;99.90
59307;DHT22;47983;53.016;-2.260;2023-09-18T05:08:05;15.90;99.90
59307;DHT22;47983;53.016;-2.260;2023-09-18T05:10:35;15.80;99.90
59307;DHT22;47983;53.016;-2.260;2023-09-18T05:13:03;15.70;99.90
59307;DHT22;47983;53.016;-2.260;2023-09-18T05:15:31;15.70;99.90
59307;DHT22;47983;53.016;-2.260;2023-09-18T05:18:00;15.70;99.90
59307;DHT22;47983;53.016;-2.260;2023-09-18T05:20:29;15.70;99.90
59307;DHT22;47983;53.016;-2.260;2023-09-18T05:22:58;15.60;99.90
59307;DHT22;47983;53.016;-2.260;2023-09-18T05:25:27;15.60;99.90
59307;DHT22;47983;53.016;-2.260;2023-09-18T05:27:59;15.60;99.90
59307;DHT22;47983;53.016;-2.260;2023-09-18T05:30:29;15.50;99.90
59307;DHT22;47983;53.016;-2.260;2023-09-18T05:33:00;15.50;99.90
59307;DHT22;47983;53.016;-2.260;2023-09-18T05:35:40;15.40;99.90
59307;DHT22;47983;53.016;-2.260;2023-09-18T05:38:13;15.40;99.90
59307;DHT22;47983;53.016;-2.260;2023-09-18T05:40:41;15.40;99.90
59307;DHT22;47983;53.016;-2.260;2023-09-18T05:43:09;15.30;99.90
59307;DHT22;47983;53.016;-2.260;2023-09-18T05:45:37;15.30;99.90
59307;DHT22;47983;53.016;-2.260;2023-09-18T05:48:05;15.20;99.90
59307;DHT22;47983;53.016;-2.260;2023-09-18T05:50:35;15.20;99.90
59307;DHT22;47983;53.016;-2.260;2023-09-18T05:53:05;15.20;99.90
59307;DHT22;47983;53.016;-2.260;2023-09-18T05:55:33;15.10;99.90
59307;DHT22;47983;53.016;-2.260;2023-09-18T05:58:02;15.10;99.90
59307;DHT22;47983;53.016;-2.260;2023-09-18T06:00:34;15.00;99.90
59307;DHT22;47983;53.016;-2.260;2023-09-18T06:03:02;15.00;99.90
59307;DHT22;47983;53.016;-2.260;2023-09-18T06:05:31;15.00;99.90
59307;DHT22;47983;53.016;-2.260;2023-09-18T06:08:00;14.90;99.90
59307;DHT22;47983;53.016;-2.260;2023-09-18T06:10:28;14.90;99.90
59307;DHT22;47983;53.016;-2.260;2023-09-18T06:12:55;14.90;99.90
59307;DHT22;47983;53.016;-2.260;2023-09-18T06:15:23;14.80;99.90
59307;DHT22;47983;53.016;-2.260;2023-09-18T06:17:52;14.80;99.90
59307;DHT22;47983;53.016;-2.260;2023-09-18T06:20:20;14.80;99.90
59307;DHT22;47983;53.016;-2.260;2023-09-18T06:22:49;14.80;99.90
59307;DHT22;47983;53.016;-2.260;2023-09-18T06:25:17;14.70;99.90
59307;DHT22;47983;53.016;-2.260;2023-09-18T06:27:45;14.70;99.90
59307;DHT22;47983;53.016;-2.260;2023-09-18T06:30:13;14.70;99.90
59307;DHT22;47983;53.016;-2.260;2023-09-18T06:32:41;14.70;99.90
59307;DHT22;47983;53.016;-2.260;2023-09-18T06:35:09;14.60;99.90
59307;DHT22;47983;53.016;-2.260;2023-09-18T06:37:38;14.60;99.90
59307;DHT22;47983;53.016;-2.260;2023-09-18T06:40:06;14.60;99.90
59307;DHT22;47983;53.016;-2.260;2023-09-18T06:42:34;14.60;99.90
59307;DHT22;47983;53.016;-2.260;2023-09-18T06:45:02;14.60;99.90
59307;DHT22;47983;53.016;-2.260;2023-09-18T06:47:34;14.60;99.90
59307;DHT22;47983;53.016;-2.260;2023-09-18T06:50:03;14.60;99.90
59307;DHT22;47983;53.016;-2.260;2023-09-18T06:52:33;14.60;99.90
59307;DHT22;47983;53.016;-2.260;2023-09-18T06:55:01;14.60;99.90
59307;DHT22;47983;53.016;-2.260;2023-09-18T06:57:29;14.60;99.90
59307;DHT22;47983;53.016;-2.260;2023-09-18T06:59:56;14.60;99.90
59307;DHT22;47983;53.016;-2.260;2023-09-18T07:02:25;14.60;99.90
59307;DHT22;47983;53.016;-2.260;2023-09-18T07:04:57;14.60;99.90
59307;DHT22;47983;53.016;-2.260;2023-09-18T07:07:25;14.60;99.90
59307;DHT22;47983;53.016;-2.260;2023-09-18T07:09:53;14.70;99.90
59307;DHT22;47983;53.016;-2.260;2023-09-18T07:12:31;14.70;99.90
59307;DHT22;47983;53.016;-2.260;2023-09-18T07:15:03;14.80;99.90
59307;DHT22;47983;53.016;-2.260;2023-09-18T07:17:32;14.90;99.90
59307;DHT22;47983;53.016;-2.260;2023-09-18T07:20:01;14.90;99.90
59307;DHT22;47983;53.016;-2.260;2023-09-18T07:22:35;15.00;99.90
59307;DHT22;47983;53.016;-2.260;2023-09-18T07:25:06;15.00;99.90
59307;DHT22;47983;53.016;-2.260;2023-09-18T07:27:35;15.10;99.90
59307;DHT22;47983;53.016;-2.260;2023-09-18T07:30:05;15.20;99.90
59307;DHT22;47983;53.016;-2.260;2023-09-18T07:32:33;15.20;99.90
59307;DHT22;47983;53.016;-2.260;2023-09-18T07:35:07;15.20;99.90
59307;DHT22;47983;53.016;-2.260;2023-09-18T07:37:35;15.20;99.90
59307;DHT22;47983;53.016;-2.260;2023-09-18T07:40:06;15.30;99.90
59307;DHT22;47983;53.016;-2.260;2023-09-18T07:42:34;15.30;99.90
59307;DHT22;47983;53.016;-2.260;2023-09-18T07:45:02;15.30;99.90
59307;DHT22;47983;53.016;-2.260;2023-09-18T07:47:30;15.40;99.90
59307;DHT22;47983;53.016;-2.260;2023-09-18T07:49:59;15.50;99.90
59307;DHT22;47983;53.016;-2.260;2023-09-18T07:52:29;15.50;99.90
59307;DHT22;47983;53.016;-2.260;2023-09-18T07:54:58;15.60;99.90
59307;DHT22;47983;53.016;-2.260;2023-09-18T07:57:26;15.70;99.90
59307;DHT22;47983;53.016;-2.260;2023-09-18T07:59:58;15.70;99.90
59307;DHT22;47983;53.016;-2.260;2023-09-18T08:02:40;15.80;99.90
59307;DHT22;47983;53.016;-2.260;2023-09-18T08:05:08;15.90;99.90
59307;DHT22;47983;53.016;-2.260;2023-09-18T08:07:37;15.90;99.90
59307;DHT22;47983;53.016;-2.260;2023-09-18T08:10:05;16.00;99.90
59307;DHT22;47983;53.016;-2.260;2023-09-18T08:12:36;16.00;99.90
59307;DHT22;47983;53.016;-2.260;2023-09-18T08:15:04;16.10;99.90
59307;DHT22;47983;53.016;-2.260;2023-09-18T08:17:34;16.20;99.90
59307;DHT22;47983;53.016;-2.260;2023-09-18T08:20:03;16.20;99.90
59307;DHT22;47983;53.016;-2.260;2023-09-18T08:22:38;16.30;99.90
59307;DHT22;47983;53.016;-2.260;2023-09-18T08:25:06;16.40;99.90
59307;DHT22;47983;53.016;-2.260;2023-09-18T08:27:41;16.40;99.90
59307;DHT22;47983;53.016;-2.260;2023-09-18T08:30:12;16.50;99.90
59307;DHT22;47983;53.016;-2.260;2023-09-18T08:32:42;16.50;99.90
59307;DHT22;47983;53.016;-2.260;2023-09-18T08:35:11;16.60;99.90
59307;DHT22;47983;53.016;-2.260;2023-09-18T08:37:43;16.70;99.90
59307;DHT22;47983;53.016;-2.260;2023-09-18T08:40:12;16.90;99.90
59307;DHT22;47983;53.016;-2.260;2023-09-18T08:42:46;17.10;99.90
59307;DHT22;47983;53.016;-2.260;2023-09-18T08:45:34;17.30;99.90
59307;DHT22;47983;53.016;-2.260;2023-09-18T08:48:03;17.40;99.90
59307;DHT22;47983;53.016;-2.260;2023-09-18T08:50:31;17.60;99.90
59307;DHT22;47983;53.016;-2.260;2023-09-18T08:53:00;17.80;99.90
59307;DHT22;47983;53.016;-2.260;2023-09-18T08:55:34;17.90;99.90
59307;DHT22;47983;53.016;-2.260;2023-09-18T08:58:02;18.10;99.90
59307;DHT22;47983;53.016;-2.260;2023-09-18T09:00:29;18.20;99.90
59307;DHT22;47983;53.016;-2.260;2023-09-18T09:02:57;18.30;99.90
59307;DHT22;47983;53.016;-2.260;2023-09-18T09:05:26;18.30;99.90
59307;DHT22;47983;53.016;-2.260;2023-09-18T09:07:55;18.30;99.90
59307;DHT22;47983;53.016;-2.260;2023-09-18T09:10:24;18.20;99.90
59307;DHT22;47983;53.016;-2.260;2023-09-18T09:12:57;18.10;99.90
59307;DHT22;47983;53.016;-2.260;2023-09-18T09:15:29;18.00;99.90
59307;DHT22;47983;53.016;-2.260;2023-09-18T09:18:07;17.80;99.90
59307;DHT22;47983;53.016;-2.260;2023-09-18T09:20:35;17.70;99.90
59307;DHT22;47983;53.016;-2.260;2023-09-18T09:23:05;17.60;99.90
59307;DHT22;47983;53.016;-2.260;2023-09-18T09:25:35;17.40;99.90
59307;DHT22;47983;53.016;-2.260;2023-09-18T09:28:04;17.20;99.90
59307;DHT22;47983;53.016;-2.260;2023-09-18T09:30:34;17.10;99.90
59307;DHT22;47983;53.016;-2.260;2023-09-18T09:33:05;16.90;99.90
59307;DHT22;47983;53.016;-2.260;2023-09-18T09:35:35;16.70;99.90
59307;DHT22;47983;53.016;-2.260;2023-09-18T09:38:11;16.60;99.90
59307;DHT22;47983;53.016;-2.260;2023-09-18T09:40:42;16.50;99.90
59307;DHT22;47983;53.016;-2.260;2023-09-18T09:43:12;16.40;99.90
59307;DHT22;47983;53.016;-2.260;2023-09-18T09:45:46;16.20;99.90
59307;DHT22;47983;53.016;-2.260;2023-09-18T09:48:14;16.10;99.90
59307;DHT22;47983;53.016;-2.260;2023-09-18T09:50:47;16.00;99.90
59307;DHT22;47983;53.016;-2.260;2023-09-18T09:53:16;15.90;99.90
59307;DHT22;47983;53.016;-2.260;2023-09-18T09:55:45;15.80;99.90
59307;DHT22;47983;53.016;-2.260;2023-09-18T09:58:12;15.80;99.90
59307;DHT22;47983;53.016;-2.260;2023-09-18T10:00:45;15.80;99.90
59307;DHT22;47983;53.016;-2.260;2023-09-18T10:03:19;15.70;99.90
59307;DHT22;47983;53.016;-2.260;2023-09-18T10:05:51;15.70;99.90
59307;DHT22;47983;53.016;-2.260;2023-09-18T10:08:24;15.70;99.90
59307;DHT22;47983;53.016;-2.260;2023-09-18T10:10:56;15.70;99.90
59307;DHT22;47983;53.016;-2.260;2023-09-18T10:13:32;15.70;99.90
59307;DHT22;47983;53.016;-2.260;2023-09-18T10:16:05;15.60;99.90
59307;DHT22;47983;53.016;-2.260;2023-09-18T10:21:41;15.50;99.90
59307;DHT22;47983;53.016;-2.260;2023-09-18T10:24:19;15.50;99.90
59307;DHT22;47983;53.016;-2.260;2023-09-18T10:26:56;15.40;99.90
59307;DHT22;47983;53.016;-2.260;2023-09-18T10:29:25;15.40;99.90
59307;DHT22;47983;53.016;-2.260;2023-09-18T10:31:53;15.30;99.90
59307;DHT22;47983;53.016;-2.260;2023-09-18T10:34:22;15.30;99.90
59307;DHT22;47983;53.016;-2.260;2023-09-18T10:36:53;15.20;99.90
59307;DHT22;47983;53.016;-2.260;2023-09-18T10:39:24;15.20;99.90
59307;DHT22;47983;53.016;-2.260;2023-09-18T10:41:54;15.00;99.90
59307;DHT22;47983;53.016;-2.260;2023-09-18T10:44:23;14.80;99.90
59307;DHT22;47983;53.016;-2.260;2023-09-18T10:46:52;14.70;99.90
59307;DHT22;47983;53.016;-2.260;2023-09-18T10:49:20;14.50;99.90
59307;DHT22;47983;53.016;-2.260;2023-09-18T10:51:49;14.40;99.90
59307;DHT22;47983;53.016;-2.260;2023-09-18T10:54:22;14.30;99.90
59307;DHT22;47983;53.016;-2.260;2023-09-18T10:56:50;14.20;99.90
59307;DHT22;47983;53.016;-2.260;2023-09-18T10:59:20;14.10;99.90
59307;DHT22;47983;53.016;-2.260;2023-09-18T11:01:50;14.00;99.90
59307;DHT22;47983;53.016;-2.260;2023-09-18T11:04:20;13.90;99.90
59307;DHT22;47983;53.016;-2.260;2023-09-18T11:09:27;13.80;99.90
59307;DHT22;47983;53.016;-2.260;2023-09-18T11:17:32;13.70;99.90
59307;DHT22;47983;53.016;-2.260;2023-09-18T11:22:55;13.80;99.90
59307;DHT22;47983;53.016;-2.260;2023-09-18T11:25:42;13.80;99.90
59307;DHT22;47983;53.016;-2.260;2023-09-18T11:28:14;13.80;99.90
59307;DHT22;47983;53.016;-2.260;2023-09-18T11:30:56;13.80;99.90
59307;DHT22;47983;53.016;-2.260;2023-09-18T11:33:39;13.90;99.90
59307;DHT22;47983;53.016;-2.260;2023-09-18T11:36:11;14.00;99.90
59307;DHT22;47983;53.016;-2.260;2023-09-18T11:38:57;14.20;99.90
59307;DHT22;47983;53.016;-2.260;2023-09-18T11:41:28;14.60;99.90
59307;DHT22;47983;53.016;-2.260;2023-09-18T11:46:49;15.10;99.90
59307;DHT22;47983;53.016;-2.260;2023-09-18T11:49:23;15.30;99.90
59307;DHT22;47983;53.016;-2.260;2023-09-18T11:51:54;15.50;99.90
59307;DHT22;47983;53.016;-2.260;2023-09-18T11:54:28;15.60;99.90
59307;DHT22;47983;53.016;-2.260;2023-09-18T11:56:57;15.80;99.90
59307;DHT22;47983;53.016;-2.260;2023-09-18T11:59:42;16.00;99.90
59307;DHT22;47983;53.016;-2.260;2023-09-18T12:02:31;16.20;99.90
59307;DHT22;47983;53.016;-2.260;2023-09-18T12:05:14;16.30;99.90
59307;DHT22;47983;53.016;-2.260;2023-09-18T12:07:47;16.40;99.90
59307;DHT22;47983;53.016;-2.260;2023-09-18T12:10:16;16.30;99.90
59307;DHT22;47983;53.016;-2.260;2023-09-18T12:12:44;16.30;99.90
59307;DHT22;47983;53.016;-2.260;2023-09-18T12:15:17;16.20;99.90
59307;DHT22;47983;53.016;-2.260;2023-09-18T12:17:47;16.10;99.90
59307;DHT22;47983;53.016;-2.260;2023-09-18T12:20:18;16.00;99.90
59307;DHT22;47983;53.016;-2.260;2023-09-18T12:22:48;15.90;99.90
59307;DHT22;47983;53.016;-2.260;2023-09-18T12:25:16;15.90;99.90
59307;DHT22;47983;53.016;-2.260;2023-09-18T12:27:46;15.80;99.90
59307;DHT22;47983;53.016;-2.260;2023-09-18T12:30:20;15.70;99.90
59307;DHT22;47983;53.016;-2.260;2023-09-18T12:32:52;15.50;99.90
59307;DHT22;47983;53.016;-2.260;2023-09-18T12:35:21;15.40;99.90
59307;DHT22;47983;53.016;-2.260;2023-09-18T12:37:49;15.30;99.90
59307;DHT22;47983;53.016;-2.260;2023-09-18T12:40:31;15.20;99.90
59307;DHT22;47983;53.016;-2.260;2023-09-18T12:43:02;15.10;99.90
59307;DHT22;47983;53.016;-2.260;2023-09-18T12:45:30;15.00;99.90
59307;DHT22;47983;53.016;-2.260;2023-09-18T12:47:59;14.80;99.90
59307;DHT22;47983;53.016;-2.260;2023-09-18T12:50:27;14.70;99.90
59307;DHT22;47983;53.016;-2.260;2023-09-18T12:55:35;14.40;99.90
59307;DHT22;47983;53.016;-2.260;2023-09-18T12:58:03;14.30;99.90
59307;DHT22;47983;53.016;-2.260;2023-09-18T13:00:36;14.30;99.90
59307;DHT22;47983;53.016;-2.260;2023-09-18T13:03:04;14.30;99.90
59307;DHT22;47983;53.016;-2.260;2023-09-18T13:05:32;14.20;99.90
59307;DHT22;47983;53.016;-2.260;2023-09-18T13:08:04;14.20;99.90
59307;DHT22;47983;53.016;-2.260;2023-09-18T13:10:49;14.20;99.90
59307;DHT22;47983;53.016;-2.260;2023-09-18T13:13:21;14.20;99.90
59307;DHT22;47983;53.016;-2.260;2023-09-18T13:15:49;14.20;99.90
59307;DHT22;47983;53.016;-2.260;2023-09-18T13:18:22;14.20;99.90
59307;DHT22;47983;53.016;-2.260;2023-09-18T13:20:52;14.20;99.90
59307;DHT22;47983;53.016;-2.260;2023-09-18T13:23:20;14.10;99.90
59307;DHT22;47983;53.016;-2.260;2023-09-18T13:26:01;14.30;99.90
59307;DHT22;47983;53.016;-2.260;2023-09-18T13:28:29;14.50;99.90
59307;DHT22;47983;53.016;-2.260;2023-09-18T13:30:59;15.00;99.90
59307;DHT22;47983;53.016;-2.260;2023-09-18T13:33:32;15.70;99.90
59307;DHT22;47983;53.016;-2.260;2023-09-18T13:36:01;16.60;99.90
59307;DHT22;47983;53.016;-2.260;2023-09-18T13:38:33;17.30;99.90
59307;DHT22;47983;53.016;-2.260;2023-09-18T13:41:01;17.90;99.90
59307;DHT22;47983;53.016;-2.260;2023-09-18T13:43:29;18.30;99.90
59307;DHT22;47983;53.016;-2.260;2023-09-18T13:46:00;18.60;99.90
59307;DHT22;47983;53.016;-2.260;2023-09-18T13:48:31;18.60;99.90
59307;DHT22;47983;53.016;-2.260;2023-09-18T13:51:00;18.50;99.90
59307;DHT22;47983;53.016;-2.260;2023-09-18T13:53:30;18.20;99.90
59307;DHT22;47983;53.016;-2.260;2023-09-18T13:55:58;17.90;99.90
59307;DHT22;47983;53.016;-2.260;2023-09-18T13:58:26;17.70;99.90
59307;DHT22;47983;53.016;-2.260;2023-09-18T14:00:53;17.30;99.90
59307;DHT22;47983;53.016;-2.260;2023-09-18T14:03:21;17.10;99.90
59307;DHT22;47983;53.016;-2.260;2023-09-18T14:05:51;16.90;99.90
59307;DHT22;47983;53.016;-2.260;2023-09-18T14:08:19;16.80;99.90
59307;DHT22;47983;53.016;-2.260;2023-09-18T14:10:46;16.60;99.90
59307;DHT22;47983;53.016;-2.260;2023-09-18T14:13:14;16.40;99.90
59307;DHT22;47983;53.016;-2.260;2023-09-18T14:15:42;16.20;99.90
59307;DHT22;47983;53.016;-2.260;2023-09-18T14:18:28;16.10;99.90
59307;DHT22;47983;53.016;-2.260;2023-09-18T14:20:56;15.90;99.90
59307;DHT22;47983;53.016;-2.260;2023-09-18T14:23:24;15.80;99.90
59307;DHT22;47983;53.016;-2.260;2023-09-18T14:25:54;15.60;99.90
59307;DHT22;47983;53.016;-2.260;2023-09-18T14:28:22;15.40;99.90
59307;DHT22;47983;53.016;-2.260;2023-09-18T14:30:50;15.30;99.90
59307;DHT22;47983;53.016;-2.260;2023-09-18T14:33:19;15.20;99.90
59307;DHT22;47983;53.016;-2.260;2023-09-18T14:35:46;15.20;99.90
59307;DHT22;47983;53.016;-2.260;2023-09-18T14:38:14;15.10;99.90
59307;DHT22;47983;53.016;-2.260;2023-09-18T14:40:42;15.20;99.90
59307;DHT22;47983;53.016;-2.260;2023-09-18T14:43:10;15.40;99.90
59307;DHT22;47983;53.016;-2.260;2023-09-18T14:45:39;15.50;99.90
59307;DHT22;47983;53.016;-2.260;2023-09-18T14:48:07;15.50;99.90
59307;DHT22;47983;53.016;-2.260;2023-09-18T14:50:35;15.60;99.90
59307;DHT22;47983;53.016;-2.260;2023-09-18T14:53:03;15.60;99.90
59307;DHT22;47983;53.016;-2.260;2023-09-18T14:55:31;15.70;99.90
59307;DHT22;47983;53.016;-2.260;2023-09-18T14:57:59;15.70;99.90
59307;DHT22;47983;53.016;-2.260;2023-09-18T15:00:27;15.80;99.90
59307;DHT22;47983;53.016;-2.260;2023-09-18T15:02:54;15.90;99.90
59307;DHT22;47983;53.016;-2.260;2023-09-18T15:05:22;16.00;99.90
59307;DHT22;47983;53.016;-2.260;2023-09-18T15:07:50;16.10;99.90
59307;DHT22;47983;53.016;-2.260;2023-09-18T15:10:18;16.00;99.90
59307;DHT22;47983;53.016;-2.260;2023-09-18T15:12:45;16.10;99.90
59307;DHT22;47983;53.016;-2.260;2023-09-18T15:15:13;16.10;99.90
59307;DHT22;47983;53.016;-2.260;2023-09-18T15:17:41;16.10;99.90
59307;DHT22;47983;53.016;-2.260;2023-09-18T15:20:09;16.20;99.90
59307;DHT22;47983;53.016;-2.260;2023-09-18T15:22:39;16.20;99.90
59307;DHT22;47983;53.016;-2.260;2023-09-18T15:25:07;16.20;99.90
59307;DHT22;47983;53.016;-2.260;2023-09-18T15:27:35;16.10;99.90
59307;DHT22;47983;53.016;-2.260;2023-09-18T15:30:04;16.10;99.90
59307;DHT22;47983;53.016;-2.260;2023-09-18T15:32:51;16.10;99.90
59307;DHT22;47983;53.016;-2.260;2023-09-18T15:35:22;16.20;99.90
59307;DHT22;47983;53.016;-2.260;2023-09-18T15:37:50;16.30;99.90
59307;DHT22;47983;53.016;-2.260;2023-09-18T15:40:19;16.30;99.90
59307;DHT22;47983;53.016;-2.260;2023-09-18T15:42:49;16.20;99.90
59307;DHT22;47983;53.016;-2.260;2023-09-18T15:45:17;16.10;99.90
59307;DHT22;47983;53.016;-2.260;2023-09-18T15:47:45;16.00;99.90
59307;DHT22;47983;53.016;-2.260;2023-09-18T15:50:14;15.90;99.90
59307;DHT22;47983;53.016;-2.260;2023-09-18T15:52:41;15.90;99.90